createdAt,value
2022-10-03T00:01:59.145Z,100625.84
2022-10-03T00:04:53.299Z,100625.34
2022-10-03T00:07:51.230Z,100581.13
2022-10-03T00:10:46.221Z,100621.25
2022-10-03T00:13:53.203Z,100624.94
2022-10-03T00:16:44.515Z,100641.16
2022-10-03T00:19:32.026Z,100635.72
2022-10-03T00:22:09.663Z,100633.50
2022-10-03T00:24:52.083Z,100648.06
2022-10-03T00:27:52.476Z,100628.19
2022-10-03T00:30:25.398Z,100630.06
2022-10-03T00:32:58.493Z,100651.84
2022-10-03T00:35:50.107Z,100646.91
2022-10-03T00:38:42.147Z,100631.69
2022-10-03T00:41:41.387Z,100654.28
2022-10-03T00:44:35.426Z,100639.84
2022-10-03T00:47:20.307Z,100665.75
2022-10-03T00:49:49.950Z,100660.59
2022-10-03T00:53:04.205Z,100663.31
2022-10-03T00:55:52.091Z,100668.13
2022-10-03T00:58:51.604Z,100674.59
2022-10-03T01:01:30.340Z,100650.06
2022-10-03T01:04:16.003Z,100659.16
2022-10-03T01:07:21.017Z,100659.75
2022-10-03T01:10:20.375Z,100663.97
2022-10-03T01:12:52.909Z,100665.91
2022-10-03T01:15:43.758Z,100657.34
2022-10-03T01:18:13.093Z,100671.63
2022-10-03T01:21:12.216Z,100638.47
2022-10-03T01:24:03.794Z,100665.91
2022-10-03T01:27:11.188Z,100660.31
2022-10-03T01:30:12.103Z,100657.53
2022-10-03T01:32:52.911Z,100669.19
2022-10-03T01:35:50.296Z,100670.84
2022-10-03T01:38:27.182Z,100681.41
2022-10-03T01:41:20.422Z,100679.41
2022-10-03T01:44:04.816Z,100678.66
2022-10-03T01:46:39.927Z,100679.75
2022-10-03T01:49:31.945Z,100682.56
2022-10-03T01:52:03.120Z,100688.78
2022-10-03T01:54:44.843Z,100689.00
2022-10-03T01:57:22.044Z,100691.34
2022-10-03T02:00:02.140Z,100715.78
2022-10-03T02:03:35.718Z,100704.22
2022-10-03T02:06:21.240Z,100703.22
2022-10-03T02:08:55.246Z,100701.56
2022-10-03T02:11:29.988Z,100703.06
2022-10-03T02:14:11.498Z,100707.88
2022-10-03T02:16:57.326Z,100714.50
2022-10-03T02:20:00.099Z,100715.13
2022-10-03T02:22:47.140Z,100717.69
2022-10-03T02:25:35.356Z,100717.84
2022-10-03T02:28:41.828Z,100695.91
2022-10-03T02:31:47.264Z,100721.66
2022-10-03T02:34:32.455Z,100717.50
2022-10-03T02:37:23.722Z,100716.19
2022-10-03T02:40:11.674Z,100722.97
2022-10-03T02:42:59.825Z,100717.16
2022-10-03T02:46:07.287Z,100715.19
2022-10-03T02:48:40.331Z,100713.72
2022-10-03T02:51:09.927Z,100724.00
2022-10-03T02:54:00.666Z,100725.16
2022-10-03T02:56:49.830Z,100719.81
2022-10-03T02:59:47.312Z,100720.81
2022-10-03T03:02:45.129Z,100713.84
2022-10-03T03:05:49.228Z,100710.19
2022-10-03T03:08:24.743Z,100707.56
2022-10-03T03:11:09.874Z,100700.91
2022-10-03T03:14:01.304Z,100666.09
2022-10-03T03:16:49.869Z,100702.75
2022-10-03T03:19:46.000Z,100701.75
2022-10-03T03:22:40.208Z,100710.88
2022-10-03T03:25:19.275Z,100710.22
2022-10-03T03:28:23.571Z,100706.94
2022-10-03T03:31:13.700Z,100716.38
2022-10-03T03:34:09.464Z,100698.13
2022-10-03T03:36:54.423Z,100721.16
2022-10-03T03:39:39.487Z,100728.28
2022-10-03T03:42:18.020Z,100732.78
2022-10-03T03:45:29.504Z,100734.44
2022-10-03T03:48:37.688Z,100743.69
2022-10-03T03:51:28.957Z,100748.69
2022-10-03T03:54:23.356Z,100752.31
2022-10-03T03:56:52.692Z,100748.84
2022-10-03T03:59:58.022Z,100752.78
2022-10-03T04:02:40.443Z,100749.16
2022-10-03T04:05:41.020Z,100741.25
2022-10-03T04:08:41.998Z,100739.06
2022-10-03T04:11:27.376Z,100743.88
2022-10-03T04:14:21.539Z,100749.69
2022-10-03T04:17:19.429Z,100751.56
2022-10-03T04:20:13.722Z,100755.84
2022-10-03T04:22:46.200Z,100749.41
2022-10-03T04:25:38.953Z,100653.34
2022-10-03T04:28:17.672Z,100747.06
2022-10-03T04:31:16.387Z,100749.53
2022-10-03T04:34:18.194Z,100744.06
2022-10-03T04:37:05.215Z,100745.34
2022-10-03T04:39:52.730Z,100745.16
2022-10-03T04:42:36.294Z,100759.94
2022-10-03T04:45:24.531Z,100762.09
2022-10-03T04:47:57.965Z,100755.25
2022-10-03T04:50:34.403Z,100734.22
2022-10-03T04:53:28.276Z,100762.94
2022-10-03T04:56:38.464Z,100754.81
2022-10-03T04:59:29.309Z,100759.50
2022-10-03T05:02:04.352Z,100757.63
2022-10-03T05:04:43.452Z,100767.63
2022-10-03T05:07:33.308Z,100757.13
2022-10-03T05:10:08.330Z,100744.53
2022-10-03T05:12:51.492Z,100770.06
2022-10-03T05:15:29.735Z,100767.19
2022-10-03T05:18:18.290Z,100761.97
2022-10-03T05:20:55.961Z,100761.47
2022-10-03T05:23:44.981Z,100782.09
2022-10-03T05:26:50.145Z,100781.06
2022-10-03T05:29:40.419Z,100782.06
2022-10-03T05:32:20.597Z,100786.91
2022-10-03T05:34:47.158Z,100795.69
2022-10-03T05:37:16.525Z,100726.06
2022-10-03T05:39:56.536Z,100765.91
2022-10-03T05:42:37.066Z,100785.31
2022-10-03T05:45:12.849Z,100808.94
2022-10-03T05:48:07.637Z,100750.31
2022-10-03T05:51:02.559Z,100817.28
2022-10-03T05:53:34.927Z,100809.53
2022-10-03T05:56:28.394Z,100809.72
2022-10-03T05:59:43.105Z,100805.91
2022-10-03T06:02:09.700Z,100813.13
2022-10-03T06:04:53.423Z,100806.63
2022-10-03T06:07:30.684Z,100748.50
2022-10-03T06:10:29.301Z,100804.75
2022-10-03T06:12:58.656Z,100819.25
2022-10-03T06:15:45.079Z,100828.91
2022-10-03T06:18:26.849Z,100807.16
2022-10-03T06:21:14.452Z,100824.72
2022-10-03T06:24:12.672Z,100831.38
2022-10-03T06:27:10.079Z,100695.25
2022-10-03T06:29:48.550Z,100843.25
2022-10-03T06:32:48.615Z,100847.78
2022-10-03T06:35:43.267Z,100852.59
2022-10-03T06:38:27.821Z,100830.94
2022-10-03T06:41:30.515Z,100837.44
2022-10-03T06:44:08.912Z,100867.97
2022-10-03T06:46:49.319Z,100863.81
2022-10-03T06:49:32.226Z,100863.22
2022-10-03T06:52:27.016Z,100879.72
2022-10-03T06:55:30.581Z,100872.81
2022-10-03T06:58:24.922Z,100871.94
2022-10-03T07:01:28.340Z,100872.44
2022-10-03T07:04:13.570Z,100878.53
2022-10-03T07:07:05.758Z,100879.53
2022-10-03T07:10:01.066Z,100881.09
2022-10-03T07:12:44.757Z,100881.63
2022-10-03T07:15:29.506Z,100887.75
2022-10-03T07:18:35.914Z,100878.16
2022-10-03T07:21:28.287Z,100882.16
2022-10-03T07:24:07.156Z,100871.50
2022-10-03T07:26:53.915Z,100879.16
2022-10-03T07:29:33.542Z,100887.81
2022-10-03T07:32:37.744Z,100884.22
2022-10-03T07:35:51.347Z,100883.69
2022-10-03T07:38:54.805Z,100893.66
2022-10-03T07:41:41.549Z,100870.75
2022-10-03T07:44:18.483Z,100875.56
2022-10-03T07:47:22.751Z,100898.13
2022-10-03T07:49:58.158Z,100905.59
2022-10-03T07:52:43.492Z,100906.09
2022-10-03T07:55:27.739Z,100803.47
2022-10-03T07:57:57.360Z,100902.75
2022-10-03T08:00:42.969Z,100893.00
2022-10-03T08:03:47.325Z,100893.09
2022-10-03T08:06:47.592Z,100892.13
2022-10-03T08:09:26.132Z,100883.81
2022-10-03T08:12:05.304Z,100865.84
2022-10-03T08:14:49.270Z,100888.22
2022-10-03T08:17:53.457Z,100886.31
2022-10-03T08:20:59.113Z,100871.72
2022-10-03T08:23:47.325Z,100882.19
2022-10-03T08:26:31.019Z,100870.34
2022-10-03T08:29:03.367Z,100863.31
2022-10-03T08:32:01.501Z,100854.25
2022-10-03T08:34:53.784Z,100840.94
2022-10-03T08:37:35.677Z,100840.34
2022-10-03T08:40:09.514Z,100837.53
2022-10-03T08:42:54.471Z,100838.16
2022-10-03T08:45:37.085Z,100822.03
2022-10-03T08:48:13.457Z,100834.53
2022-10-03T08:50:56.397Z,100829.09
2022-10-03T08:53:26.071Z,100780.94
2022-10-03T08:56:01.756Z,100817.94
2022-10-03T08:58:47.204Z,100823.69
2022-10-03T09:01:23.376Z,100817.97
2022-10-03T09:04:24.432Z,100804.13
2022-10-03T09:07:18.740Z,100752.47
2022-10-03T09:09:57.977Z,100818.44
2022-10-03T09:12:52.245Z,100816.00
2022-10-03T09:15:46.589Z,100824.09
2022-10-03T09:18:31.762Z,100820.28
2022-10-03T09:21:24.561Z,100824.94
2022-10-03T09:24:03.187Z,100824.81
2022-10-03T09:26:54.804Z,100825.06
2022-10-03T09:29:40.420Z,100836.41
2022-10-03T09:32:18.981Z,100835.88
2022-10-03T09:35:07.204Z,100845.69
2022-10-03T09:37:46.399Z,100853.69
2022-10-03T09:40:34.801Z,100849.38
2022-10-03T09:43:39.199Z,100834.41
2022-10-03T09:46:21.176Z,100849.09
2022-10-03T09:49:21.610Z,100771.06
2022-10-03T09:52:03.538Z,100835.75
2022-10-03T09:55:03.167Z,100862.41
2022-10-03T09:57:51.407Z,100867.09
2022-10-03T10:00:40.564Z,100854.63
2022-10-03T10:03:42.325Z,100835.22
2022-10-03T10:06:30.949Z,100823.09
2022-10-03T10:09:32.095Z,100811.72
2022-10-03T10:12:17.701Z,100874.84
2022-10-03T10:15:05.987Z,100872.44
2022-10-03T10:17:32.534Z,100857.03
2022-10-03T10:20:27.164Z,100849.72
2022-10-03T10:23:20.914Z,100814.34
2022-10-03T10:25:53.674Z,100817.09
2022-10-03T10:28:55.820Z,100823.22
2022-10-03T10:31:28.287Z,100814.66
2022-10-03T10:34:12.920Z,100808.66
2022-10-03T10:37:25.127Z,100753.09
2022-10-03T10:40:07.698Z,100843.88
2022-10-03T10:43:15.498Z,100856.53
2022-10-03T10:45:47.089Z,100872.44
2022-10-03T10:48:41.134Z,100861.94
2022-10-03T10:51:38.742Z,100869.16
2022-10-03T10:54:39.496Z,100870.53
2022-10-03T10:57:55.704Z,100861.19
2022-10-03T11:00:29.199Z,100828.94
2022-10-03T11:03:33.778Z,100857.25
2022-10-03T11:06:18.953Z,100850.00
2022-10-03T11:09:09.982Z,100840.75
2022-10-03T11:11:56.101Z,100807.13
2022-10-03T11:15:01.914Z,100832.31
2022-10-03T11:17:34.485Z,100841.44
2022-10-03T11:20:28.364Z,100707.16
2022-10-03T11:23:24.948Z,100836.09
2022-10-03T11:26:09.338Z,100802.56
2022-10-03T11:29:06.814Z,100802.91
2022-10-03T11:31:45.659Z,100849.28
2022-10-03T11:34:33.446Z,100827.63
2022-10-03T11:37:32.595Z,100836.13
2022-10-03T11:40:19.426Z,100835.25
2022-10-03T11:43:07.664Z,100817.00
2022-10-03T11:45:49.966Z,100824.88
2022-10-03T11:48:40.389Z,100826.84
2022-10-03T11:51:35.579Z,100829.78
2022-10-03T11:54:31.618Z,100828.19
2022-10-03T11:57:14.233Z,100836.72
2022-10-03T12:00:00.411Z,100837.09
2022-10-03T12:02:38.719Z,100840.81
2022-10-03T12:05:15.585Z,100830.31
2022-10-03T12:08:20.516Z,100823.47
2022-10-03T12:10:52.910Z,100811.53
2022-10-03T12:13:44.417Z,100804.69
2022-10-03T12:16:23.336Z,100782.41
2022-10-03T12:18:55.094Z,100757.63
2022-10-03T12:22:09.326Z,100825.72
2022-10-03T12:24:41.329Z,100824.38
2022-10-03T12:27:43.714Z,100815.81
2022-10-03T12:30:16.346Z,100811.91
2022-10-03T12:33:07.884Z,100817.22
2022-10-03T12:35:44.630Z,100800.44
2022-10-03T12:38:58.805Z,100806.13
2022-10-03T12:41:44.294Z,100800.66
2022-10-03T12:44:29.716Z,100798.00
2022-10-03T12:47:09.136Z,100795.78
2022-10-03T12:49:56.707Z,100797.25
2022-10-03T12:52:33.612Z,100793.53
2022-10-03T12:55:15.226Z,100789.63
2022-10-03T12:57:58.856Z,100774.94
2022-10-03T13:00:46.108Z,100787.72
2022-10-03T13:03:21.824Z,100790.72
2022-10-03T13:06:12.504Z,100787.09
2022-10-03T13:09:11.565Z,100784.06
2022-10-03T13:11:57.028Z,100781.41
2022-10-03T13:14:29.352Z,100786.00
2022-10-03T13:17:20.953Z,100783.41
2022-10-03T13:20:14.247Z,100723.38
2022-10-03T13:22:52.876Z,100784.97
2022-10-03T13:25:45.362Z,100737.53
2022-10-03T13:28:21.102Z,100779.81
2022-10-03T13:31:03.834Z,100765.91
2022-10-03T13:33:40.617Z,100713.19
2022-10-03T13:36:39.781Z,100771.53
2022-10-03T13:39:30.212Z,100704.06
2022-10-03T13:42:02.820Z,100768.75
2022-10-03T13:44:41.019Z,100770.19
2022-10-03T13:47:29.284Z,100764.69
2022-10-03T13:50:01.424Z,100745.13
2022-10-03T13:52:30.775Z,100757.53
2022-10-03T13:55:19.485Z,100757.66
2022-10-03T13:58:32.779Z,100750.91
2022-10-03T14:01:13.536Z,100756.88
2022-10-03T14:04:14.315Z,100761.22
2022-10-03T14:06:51.360Z,100762.88
2022-10-03T14:09:27.041Z,100757.50
2022-10-03T14:12:06.068Z,100754.00
2022-10-03T14:14:42.130Z,100747.75
2022-10-03T14:17:18.011Z,100746.25
2022-10-03T14:19:50.495Z,100743.34
2022-10-03T14:22:29.229Z,100732.44
2022-10-03T14:25:19.927Z,100740.94
2022-10-03T14:28:18.958Z,100743.19
2022-10-03T14:31:04.961Z,100734.56
2022-10-03T14:33:51.113Z,100732.13
2022-10-03T14:36:44.103Z,100697.69
2022-10-03T14:39:26.830Z,100739.59
2022-10-03T14:41:56.132Z,100737.25
2022-10-03T14:44:27.517Z,100725.56
2022-10-03T14:47:09.273Z,100738.56
2022-10-03T14:49:55.020Z,100751.59
2022-10-03T14:52:39.074Z,100698.78
2022-10-03T14:55:25.308Z,100715.47
2022-10-03T14:58:10.843Z,100737.25
2022-10-03T15:00:45.190Z,100674.25
2022-10-03T15:03:18.055Z,100731.53
2022-10-03T15:06:10.793Z,100698.53
2022-10-03T15:08:45.528Z,100656.13
2022-10-03T15:11:15.397Z,100716.91
2022-10-03T15:13:56.173Z,100731.13
2022-10-03T15:16:24.542Z,100683.63
2022-10-03T15:19:01.818Z,100691.66
2022-10-03T15:21:31.996Z,100670.72
2022-10-03T15:24:05.093Z,100701.19
2022-10-03T15:26:37.288Z,100663.63
2022-10-03T15:29:12.888Z,100662.63
2022-10-03T15:31:44.761Z,100712.16
2022-10-03T15:34:20.240Z,100657.47
2022-10-03T15:36:56.020Z,100625.53
2022-10-03T15:39:30.854Z,100702.00
2022-10-03T15:42:09.443Z,100727.97
2022-10-03T15:44:51.567Z,100692.69
2022-10-03T15:47:30.962Z,100725.03
2022-10-03T15:50:17.472Z,100688.72
2022-10-03T15:52:52.484Z,100701.16
2022-10-03T15:55:29.656Z,100697.28
2022-10-03T15:58:06.052Z,100704.91
2022-10-03T16:00:36.058Z,100705.31
2022-10-03T16:03:13.003Z,100714.38
2022-10-03T16:06:03.060Z,100697.25
2022-10-03T16:08:33.049Z,100708.91
2022-10-03T16:11:09.169Z,100679.13
2022-10-03T16:13:39.875Z,100694.78
2022-10-03T16:16:16.377Z,100689.63
2022-10-03T16:18:48.233Z,100644.91
2022-10-03T16:21:32.455Z,100694.84
2022-10-03T16:24:02.986Z,100702.03
2022-10-03T16:26:35.596Z,100695.41
2022-10-03T16:29:10.384Z,100687.97
2022-10-03T16:31:43.593Z,100640.03
2022-10-03T16:34:15.331Z,100690.94
2022-10-03T16:36:45.547Z,100665.91
2022-10-03T16:39:34.419Z,100682.41
2022-10-03T16:42:11.972Z,100690.34
2022-10-03T16:44:47.505Z,100683.72
2022-10-03T16:47:16.701Z,100662.94
2022-10-03T16:50:05.657Z,100691.06
2022-10-03T16:52:38.155Z,100670.56
2022-10-03T16:55:06.862Z,100675.66
2022-10-03T16:57:45.643Z,100675.56
2022-10-03T17:00:31.594Z,100674.88
2022-10-03T17:02:58.868Z,100663.03
2022-10-03T17:05:26.274Z,100662.75
2022-10-03T17:08:23.611Z,100669.50
2022-10-03T17:10:55.879Z,100642.28
2022-10-03T17:13:29.644Z,100676.63
2022-10-03T17:16:23.981Z,100670.13
2022-10-03T17:19:21.480Z,100677.00
2022-10-03T17:21:54.902Z,100681.97
2022-10-03T17:24:38.993Z,100643.50
2022-10-03T17:27:16.819Z,100687.34
2022-10-03T17:29:56.621Z,100677.88
2022-10-03T17:32:29.421Z,100611.78
2022-10-03T17:35:17.560Z,100648.16
2022-10-03T17:38:44.970Z,100684.38
2022-10-03T17:41:13.892Z,100691.53
2022-10-03T17:43:45.671Z,100683.69
2022-10-03T17:46:37.557Z,100674.72
2022-10-03T17:49:23.803Z,100655.50
2022-10-03T17:51:54.466Z,100660.72
2022-10-03T17:54:34.773Z,100661.31
2022-10-03T17:57:13.832Z,100654.84
2022-10-03T17:59:50.647Z,100666.28
2022-10-03T18:02:25.990Z,100642.03
2022-10-03T18:05:07.298Z,100611.28
2022-10-03T18:07:35.874Z,100660.72
2022-10-03T18:10:05.458Z,100672.00
2022-10-03T18:12:42.180Z,100669.88
2022-10-03T18:15:41.244Z,100671.72
2022-10-03T18:18:23.150Z,100674.53
2022-10-03T18:20:59.429Z,100691.88
2022-10-03T18:23:55.151Z,100666.38
2022-10-03T18:26:30.073Z,100687.97
2022-10-03T18:29:33.017Z,100677.84
2022-10-03T18:32:22.550Z,100675.38
2022-10-03T18:35:03.476Z,100671.31
2022-10-03T18:37:30.083Z,100668.66
2022-10-03T18:39:59.480Z,100665.22
2022-10-03T18:42:28.142Z,100673.69
2022-10-03T18:44:57.739Z,100644.84
2022-10-03T18:47:36.213Z,100677.53
2022-10-03T18:50:09.068Z,100672.72
2022-10-03T18:52:54.108Z,100665.94
2022-10-03T18:55:31.175Z,100677.88
2022-10-03T18:58:21.232Z,100679.22
2022-10-03T19:00:50.769Z,100673.06
2022-10-03T19:03:22.076Z,100676.91
2022-10-03T19:06:02.816Z,100670.94
2022-10-03T19:08:48.854Z,100670.44
2022-10-03T19:11:21.369Z,100673.75
2022-10-03T19:14:03.286Z,100666.09
2022-10-03T19:16:49.813Z,100669.59
2022-10-03T19:19:55.398Z,100612.03
2022-10-03T19:22:32.199Z,100678.53
2022-10-03T19:25:02.895Z,100691.81
2022-10-03T19:27:49.574Z,100687.13
2022-10-03T19:30:22.809Z,100623.56
2022-10-03T19:32:59.124Z,100673.13
2022-10-03T19:35:28.410Z,100645.44
2022-10-03T19:38:17.044Z,100675.00
2022-10-03T19:40:53.972Z,100678.81
2022-10-03T19:43:42.092Z,100683.44
2022-10-03T19:46:40.817Z,100683.38
2022-10-03T19:49:41.676Z,100681.97
2022-10-03T19:52:30.271Z,100686.41
2022-10-03T19:55:02.896Z,100689.38
2022-10-03T19:57:42.442Z,100684.59
2022-10-03T20:00:15.181Z,100691.03
2022-10-03T20:02:44.705Z,100693.84
2022-10-03T20:05:20.675Z,100679.75
2022-10-03T20:07:56.966Z,100685.38
2022-10-03T20:10:54.465Z,100688.66
2022-10-03T20:13:21.354Z,100680.16
2022-10-03T20:15:50.734Z,100639.81
2022-10-03T20:18:33.408Z,100687.16
2022-10-03T20:21:02.948Z,100660.28
2022-10-03T20:23:32.644Z,100686.53
2022-10-03T20:26:04.869Z,100680.91
2022-10-03T20:28:49.978Z,100683.88
2022-10-03T20:31:25.257Z,100684.66
2022-10-03T20:33:54.309Z,100685.44
2022-10-03T20:36:35.134Z,100687.56
2022-10-03T20:39:18.377Z,100688.06
2022-10-03T20:42:01.961Z,100672.78
2022-10-03T20:44:56.785Z,100677.94
2022-10-03T20:47:33.114Z,100669.00
2022-10-03T20:50:25.804Z,100670.44
2022-10-03T20:52:56.423Z,100621.91
2022-10-03T20:55:27.986Z,100657.72
2022-10-03T20:58:02.018Z,100671.13
2022-10-03T21:00:30.179Z,100666.63
2022-10-03T21:03:01.222Z,100665.78
2022-10-03T21:05:39.280Z,100665.78
2022-10-03T21:08:38.128Z,100663.09
2022-10-03T21:11:18.983Z,100663.09
2022-10-03T21:13:52.264Z,100669.00
2022-10-03T21:16:29.528Z,100669.91
2022-10-03T21:19:00.744Z,100658.06
2022-10-03T21:21:43.059Z,100663.88
2022-10-03T21:24:45.689Z,100677.72
2022-10-03T21:27:16.793Z,100676.25
2022-10-03T21:29:54.425Z,100677.75
2022-10-03T21:32:49.024Z,100674.59
2022-10-03T21:35:37.446Z,100677.41
2022-10-03T21:38:09.839Z,100676.09
2022-10-03T21:40:51.340Z,100672.19
2022-10-03T21:43:34.488Z,100670.81
2022-10-03T21:46:22.858Z,100668.09
2022-10-03T21:49:08.106Z,100677.84
2022-10-03T21:51:44.548Z,100662.66
2022-10-03T21:54:29.814Z,100661.69
2022-10-03T21:57:12.489Z,100649.22
2022-10-03T21:59:48.364Z,100666.00
2022-10-03T22:02:52.601Z,100669.97
2022-10-03T22:05:43.135Z,100652.63
2022-10-03T22:08:22.949Z,100661.84
2022-10-03T22:11:14.007Z,100655.72
2022-10-03T22:13:46.462Z,100640.22
2022-10-03T22:16:15.989Z,100656.16
2022-10-03T22:19:05.987Z,100628.16
2022-10-03T22:21:45.276Z,100628.41
2022-10-03T22:24:41.871Z,100631.09
2022-10-03T22:27:53.962Z,100626.13
2022-10-03T22:30:21.847Z,100635.34
2022-10-03T22:33:03.507Z,100638.28
2022-10-03T22:35:38.875Z,100639.25
2022-10-03T22:38:07.132Z,100631.25
2022-10-03T22:40:34.833Z,100630.25
2022-10-03T22:43:05.303Z,100602.69
2022-10-03T22:45:37.847Z,100629.44
2022-10-03T22:48:11.646Z,100600.25
2022-10-03T22:50:41.747Z,100639.09
2022-10-03T22:53:13.972Z,100607.84
2022-10-03T22:55:46.852Z,100639.84
2022-10-03T22:58:14.553Z,100629.72
2022-10-03T23:00:43.056Z,100605.75
2022-10-03T23:03:34.082Z,100612.66
2022-10-03T23:06:27.094Z,100611.16
2022-10-03T23:08:53.610Z,100619.50
2022-10-03T23:11:24.374Z,100614.50
2022-10-03T23:13:51.411Z,100558.31
2022-10-03T23:16:51.780Z,100604.97
2022-10-03T23:19:29.239Z,100593.84
2022-10-03T23:21:58.415Z,100517.53
2022-10-03T23:24:24.953Z,100617.25
2022-10-03T23:27:16.465Z,100613.25
2022-10-03T23:29:43.137Z,100614.81
2022-10-03T23:32:10.772Z,100609.53
2022-10-03T23:34:37.346Z,100607.72
2022-10-03T23:37:22.785Z,100602.72
2022-10-03T23:39:55.461Z,100603.81
2022-10-03T23:42:31.281Z,100598.09
2022-10-03T23:45:07.322Z,100604.63
2022-10-03T23:47:41.129Z,100601.84
2022-10-03T23:50:09.558Z,100577.41
2022-10-03T23:52:47.400Z,100578.50
2022-10-03T23:55:21.438Z,100604.63
2022-10-03T23:57:48.283Z,100521.84
